sensor_id;sensor_type;location;lat;lon;timestamp;P1;durP1;ratioP1;P2;durP2;ratioP2
74670;SDS011;63196;39.564;2.628;2023-07-24T00:01:53;0.00;;;0.00;;
74670;SDS011;63196;39.564;2.628;2023-07-24T00:04:19;0.00;;;0.00;;
74670;SDS011;63196;39.564;2.628;2023-07-24T00:06:44;0.10;;;0.10;;
74670;SDS011;63196;39.564;2.628;2023-07-24T00:09:09;0.00;;;0.00;;
74670;SDS011;63196;39.564;2.628;2023-07-24T00:11:35;0.00;;;0.00;;
74670;SDS011;63196;39.564;2.628;2023-07-24T00:14:00;0.10;;;0.10;;
74670;SDS011;63196;39.564;2.628;2023-07-24T00:16:26;0.00;;;0.00;;
74670;SDS011;63196;39.564;2.628;2023-07-24T00:18:51;0.00;;;0.00;;
74670;SDS011;63196;39.564;2.628;2023-07-24T00:21:16;0.00;;;0.00;;
74670;SDS011;63196;39.564;2.628;2023-07-24T00:23:42;0.00;;;0.00;;
74670;SDS011;63196;39.564;2.628;2023-07-24T00:26:07;0.00;;;0.00;;
74670;SDS011;63196;39.564;2.628;2023-07-24T00:28:33;0.00;;;0.00;;
74670;SDS011;63196;39.564;2.628;2023-07-24T00:30:58;0.00;;;0.00;;
74670;SDS011;63196;39.564;2.628;2023-07-24T00:33:23;0.00;;;0.00;;
74670;SDS011;63196;39.564;2.628;2023-07-24T00:35:49;0.00;;;0.00;;
74670;SDS011;63196;39.564;2.628;2023-07-24T00:38:14;0.00;;;0.00;;
74670;SDS011;63196;39.564;2.628;2023-07-24T00:40:40;0.00;;;0.00;;
74670;SDS011;63196;39.564;2.628;2023-07-24T00:43:06;0.00;;;0.00;;
74670;SDS011;63196;39.564;2.628;2023-07-24T00:45:32;0.10;;;0.10;;
74670;SDS011;63196;39.564;2.628;2023-07-24T00:47:59;0.00;;;0.00;;
74670;SDS011;63196;39.564;2.628;2023-07-24T00:50:24;0.00;;;0.00;;
74670;SDS011;63196;39.564;2.628;2023-07-24T00:52:50;0.20;;;0.20;;
74670;SDS011;63196;39.564;2.628;2023-07-24T00:55:16;0.00;;;0.00;;
74670;SDS011;63196;39.564;2.628;2023-07-24T00:57:42;0.10;;;0.10;;
74670;SDS011;63196;39.564;2.628;2023-07-24T01:00:07;0.00;;;0.00;;
74670;SDS011;63196;39.564;2.628;2023-07-24T01:02:33;0.00;;;0.00;;
74670;SDS011;63196;39.564;2.628;2023-07-24T01:04:59;0.00;;;0.00;;
74670;SDS011;63196;39.564;2.628;2023-07-24T01:07:25;0.10;;;0.10;;
74670;SDS011;63196;39.564;2.628;2023-07-24T01:09:50;0.00;;;0.00;;
74670;SDS011;63196;39.564;2.628;2023-07-24T01:17:07;0.20;;;0.10;;
74670;SDS011;63196;39.564;2.628;2023-07-24T01:22:10;0.10;;;0.00;;
74670;SDS011;63196;39.564;2.628;2023-07-24T01:24:39;0.10;;;0.10;;
74670;SDS011;63196;39.564;2.628;2023-07-24T01:27:17;0.00;;;0.00;;
74670;SDS011;63196;39.564;2.628;2023-07-24T01:29:43;0.10;;;0.10;;
74670;SDS011;63196;39.564;2.628;2023-07-24T01:32:09;0.00;;;0.00;;
74670;SDS011;63196;39.564;2.628;2023-07-24T01:34:34;0.10;;;0.10;;
74670;SDS011;63196;39.564;2.628;2023-07-24T01:36:59;0.00;;;0.00;;
74670;SDS011;63196;39.564;2.628;2023-07-24T01:39:25;0.00;;;0.00;;
74670;SDS011;63196;39.564;2.628;2023-07-24T01:41:51;0.00;;;0.00;;
74670;SDS011;63196;39.564;2.628;2023-07-24T01:44:16;0.00;;;0.00;;
74670;SDS011;63196;39.564;2.628;2023-07-24T01:46:43;0.00;;;0.00;;
74670;SDS011;63196;39.564;2.628;2023-07-24T01:49:08;0.00;;;0.00;;
74670;SDS011;63196;39.564;2.628;2023-07-24T01:51:33;0.00;;;0.00;;
74670;SDS011;63196;39.564;2.628;2023-07-24T01:53:59;0.10;;;0.00;;
74670;SDS011;63196;39.564;2.628;2023-07-24T01:56:24;0.10;;;0.00;;
74670;SDS011;63196;39.564;2.628;2023-07-24T01:58:49;0.00;;;0.00;;
74670;SDS011;63196;39.564;2.628;2023-07-24T02:01:15;0.10;;;0.00;;
74670;SDS011;63196;39.564;2.628;2023-07-24T02:03:40;0.00;;;0.00;;
74670;SDS011;63196;39.564;2.628;2023-07-24T02:06:06;0.00;;;0.00;;
74670;SDS011;63196;39.564;2.628;2023-07-24T02:08:31;0.00;;;0.00;;
74670;SDS011;63196;39.564;2.628;2023-07-24T02:10:56;0.00;;;0.00;;
74670;SDS011;63196;39.564;2.628;2023-07-24T02:13:22;0.00;;;0.00;;
74670;SDS011;63196;39.564;2.628;2023-07-24T02:15:47;0.10;;;0.00;;
74670;SDS011;63196;39.564;2.628;2023-07-24T02:18:12;0.00;;;0.00;;
74670;SDS011;63196;39.564;2.628;2023-07-24T02:20:38;0.00;;;0.00;;
74670;SDS011;63196;39.564;2.628;2023-07-24T02:23:03;0.00;;;0.00;;
74670;SDS011;63196;39.564;2.628;2023-07-24T02:25:29;0.00;;;0.00;;
74670;SDS011;63196;39.564;2.628;2023-07-24T02:27:54;0.10;;;0.10;;
74670;SDS011;63196;39.564;2.628;2023-07-24T02:30:20;0.00;;;0.00;;
74670;SDS011;63196;39.564;2.628;2023-07-24T02:32:45;0.00;;;0.00;;
74670;SDS011;63196;39.564;2.628;2023-07-24T02:35:11;0.10;;;0.00;;
74670;SDS011;63196;39.564;2.628;2023-07-24T02:37:36;0.00;;;0.00;;
74670;SDS011;63196;39.564;2.628;2023-07-24T02:40:02;0.00;;;0.00;;
74670;SDS011;63196;39.564;2.628;2023-07-24T02:42:27;0.00;;;0.00;;
74670;SDS011;63196;39.564;2.628;2023-07-24T02:44:53;0.00;;;0.00;;
74670;SDS011;63196;39.564;2.628;2023-07-24T02:47:18;0.00;;;0.00;;
74670;SDS011;63196;39.564;2.628;2023-07-24T02:49:43;0.00;;;0.00;;
74670;SDS011;63196;39.564;2.628;2023-07-24T02:52:09;0.00;;;0.00;;
74670;SDS011;63196;39.564;2.628;2023-07-24T02:54:34;0.10;;;0.10;;
74670;SDS011;63196;39.564;2.628;2023-07-24T02:57:00;0.00;;;0.00;;
74670;SDS011;63196;39.564;2.628;2023-07-24T02:59:25;0.20;;;0.00;;
74670;SDS011;63196;39.564;2.628;2023-07-24T03:01:51;0.00;;;0.00;;
74670;SDS011;63196;39.564;2.628;2023-07-24T03:04:16;0.00;;;0.00;;
74670;SDS011;63196;39.564;2.628;2023-07-24T03:06:42;0.20;;;0.10;;
74670;SDS011;63196;39.564;2.628;2023-07-24T03:09:07;0.00;;;0.00;;
74670;SDS011;63196;39.564;2.628;2023-07-24T03:11:33;0.10;;;0.00;;
74670;SDS011;63196;39.564;2.628;2023-07-24T03:13:58;0.00;;;0.00;;
74670;SDS011;63196;39.564;2.628;2023-07-24T03:16:24;0.00;;;0.00;;
74670;SDS011;63196;39.564;2.628;2023-07-24T03:18:49;0.00;;;0.00;;
74670;SDS011;63196;39.564;2.628;2023-07-24T03:21:14;0.10;;;0.00;;
74670;SDS011;63196;39.564;2.628;2023-07-24T03:23:40;0.00;;;0.00;;
74670;SDS011;63196;39.564;2.628;2023-07-24T03:26:05;0.10;;;0.00;;
74670;SDS011;63196;39.564;2.628;2023-07-24T03:28:30;0.00;;;0.00;;
74670;SDS011;63196;39.564;2.628;2023-07-24T03:30:56;0.10;;;0.10;;
74670;SDS011;63196;39.564;2.628;2023-07-24T03:33:21;0.00;;;0.00;;
74670;SDS011;63196;39.564;2.628;2023-07-24T03:35:47;0.00;;;0.00;;
74670;SDS011;63196;39.564;2.628;2023-07-24T03:38:12;0.20;;;0.20;;
74670;SDS011;63196;39.564;2.628;2023-07-24T03:40:37;0.00;;;0.00;;
74670;SDS011;63196;39.564;2.628;2023-07-24T03:43:04;0.00;;;0.00;;
74670;SDS011;63196;39.564;2.628;2023-07-24T03:45:30;0.00;;;0.00;;
74670;SDS011;63196;39.564;2.628;2023-07-24T03:47:56;0.00;;;0.00;;
74670;SDS011;63196;39.564;2.628;2023-07-24T03:50:21;0.00;;;0.00;;
74670;SDS011;63196;39.564;2.628;2023-07-24T03:52:46;0.00;;;0.00;;
74670;SDS011;63196;39.564;2.628;2023-07-24T03:55:12;0.00;;;0.00;;
74670;SDS011;63196;39.564;2.628;2023-07-24T03:57:37;0.00;;;0.00;;
74670;SDS011;63196;39.564;2.628;2023-07-24T04:00:03;0.00;;;0.00;;
74670;SDS011;63196;39.564;2.628;2023-07-24T04:02:28;0.00;;;0.00;;
74670;SDS011;63196;39.564;2.628;2023-07-24T04:04:53;0.00;;;0.00;;
74670;SDS011;63196;39.564;2.628;2023-07-24T04:07:19;0.00;;;0.00;;
74670;SDS011;63196;39.564;2.628;2023-07-24T04:09:44;0.10;;;0.00;;
74670;SDS011;63196;39.564;2.628;2023-07-24T04:12:10;0.00;;;0.00;;
74670;SDS011;63196;39.564;2.628;2023-07-24T04:14:35;0.00;;;0.00;;
74670;SDS011;63196;39.564;2.628;2023-07-24T04:17:00;0.00;;;0.00;;
74670;SDS011;63196;39.564;2.628;2023-07-24T04:19:26;0.10;;;0.10;;
74670;SDS011;63196;39.564;2.628;2023-07-24T04:21:51;0.00;;;0.00;;
74670;SDS011;63196;39.564;2.628;2023-07-24T04:24:16;0.00;;;0.00;;
74670;SDS011;63196;39.564;2.628;2023-07-24T04:26:42;0.00;;;0.00;;
74670;SDS011;63196;39.564;2.628;2023-07-24T04:29:07;0.00;;;0.00;;
74670;SDS011;63196;39.564;2.628;2023-07-24T04:31:33;0.10;;;0.00;;
74670;SDS011;63196;39.564;2.628;2023-07-24T04:33:58;0.00;;;0.00;;
74670;SDS011;63196;39.564;2.628;2023-07-24T04:36:24;0.00;;;0.00;;
74670;SDS011;63196;39.564;2.628;2023-07-24T04:38:49;0.10;;;0.00;;
74670;SDS011;63196;39.564;2.628;2023-07-24T04:41:15;0.00;;;0.00;;
74670;SDS011;63196;39.564;2.628;2023-07-24T04:43:40;0.00;;;0.00;;
74670;SDS011;63196;39.564;2.628;2023-07-24T04:46:05;0.00;;;0.00;;
74670;SDS011;63196;39.564;2.628;2023-07-24T04:48:31;0.00;;;0.00;;
74670;SDS011;63196;39.564;2.628;2023-07-24T04:50:56;0.10;;;0.00;;
74670;SDS011;63196;39.564;2.628;2023-07-24T04:53:22;0.10;;;0.00;;
74670;SDS011;63196;39.564;2.628;2023-07-24T04:55:48;0.00;;;0.00;;
74670;SDS011;63196;39.564;2.628;2023-07-24T04:58:13;0.10;;;0.00;;
74670;SDS011;63196;39.564;2.628;2023-07-24T05:00:39;0.10;;;0.10;;
74670;SDS011;63196;39.564;2.628;2023-07-24T05:03:04;0.00;;;0.00;;
74670;SDS011;63196;39.564;2.628;2023-07-24T05:05:32;0.00;;;0.00;;
74670;SDS011;63196;39.564;2.628;2023-07-24T05:07:57;0.00;;;0.00;;
74670;SDS011;63196;39.564;2.628;2023-07-24T05:10:22;0.00;;;0.00;;
74670;SDS011;63196;39.564;2.628;2023-07-24T05:12:48;0.00;;;0.00;;
74670;SDS011;63196;39.564;2.628;2023-07-24T05:15:13;0.00;;;0.00;;
74670;SDS011;63196;39.564;2.628;2023-07-24T05:17:42;0.10;;;0.10;;
74670;SDS011;63196;39.564;2.628;2023-07-24T05:20:08;0.00;;;0.00;;
74670;SDS011;63196;39.564;2.628;2023-07-24T05:22:34;0.00;;;0.00;;
74670;SDS011;63196;39.564;2.628;2023-07-24T05:24:59;0.00;;;0.00;;
74670;SDS011;63196;39.564;2.628;2023-07-24T05:27:24;0.00;;;0.00;;
74670;SDS011;63196;39.564;2.628;2023-07-24T05:29:50;0.00;;;0.00;;
74670;SDS011;63196;39.564;2.628;2023-07-24T05:32:15;0.00;;;0.00;;
74670;SDS011;63196;39.564;2.628;2023-07-24T05:34:41;0.00;;;0.00;;
74670;SDS011;63196;39.564;2.628;2023-07-24T05:37:06;0.10;;;0.00;;
74670;SDS011;63196;39.564;2.628;2023-07-24T05:39:31;0.10;;;0.10;;
74670;SDS011;63196;39.564;2.628;2023-07-24T05:41:57;0.10;;;0.00;;
74670;SDS011;63196;39.564;2.628;2023-07-24T05:44:22;0.20;;;0.00;;
74670;SDS011;63196;39.564;2.628;2023-07-24T05:46:48;0.00;;;0.00;;
74670;SDS011;63196;39.564;2.628;2023-07-24T05:49:14;0.00;;;0.00;;
74670;SDS011;63196;39.564;2.628;2023-07-24T05:51:39;0.00;;;0.00;;
74670;SDS011;63196;39.564;2.628;2023-07-24T05:54:04;0.10;;;0.00;;
74670;SDS011;63196;39.564;2.628;2023-07-24T05:56:31;0.00;;;0.00;;
74670;SDS011;63196;39.564;2.628;2023-07-24T05:58:57;0.00;;;0.00;;
74670;SDS011;63196;39.564;2.628;2023-07-24T06:01:22;0.00;;;0.00;;
74670;SDS011;63196;39.564;2.628;2023-07-24T06:03:49;0.00;;;0.00;;
74670;SDS011;63196;39.564;2.628;2023-07-24T06:06:14;0.00;;;0.00;;
74670;SDS011;63196;39.564;2.628;2023-07-24T06:08:40;0.00;;;0.00;;
74670;SDS011;63196;39.564;2.628;2023-07-24T06:11:05;0.00;;;0.00;;
74670;SDS011;63196;39.564;2.628;2023-07-24T06:13:30;0.00;;;0.00;;
74670;SDS011;63196;39.564;2.628;2023-07-24T06:15:56;0.00;;;0.00;;
74670;SDS011;63196;39.564;2.628;2023-07-24T06:18:21;0.10;;;0.10;;
74670;SDS011;63196;39.564;2.628;2023-07-24T06:20:47;0.10;;;0.10;;
74670;SDS011;63196;39.564;2.628;2023-07-24T06:23:15;0.10;;;0.10;;
74670;SDS011;63196;39.564;2.628;2023-07-24T06:25:40;0.00;;;0.00;;
74670;SDS011;63196;39.564;2.628;2023-07-24T06:28:05;0.00;;;0.00;;
74670;SDS011;63196;39.564;2.628;2023-07-24T06:30:31;0.10;;;0.10;;
74670;SDS011;63196;39.564;2.628;2023-07-24T06:32:56;0.10;;;0.10;;
74670;SDS011;63196;39.564;2.628;2023-07-24T06:35:22;0.20;;;0.10;;
74670;SDS011;63196;39.564;2.628;2023-07-24T06:37:47;0.10;;;0.10;;
74670;SDS011;63196;39.564;2.628;2023-07-24T06:40:12;0.00;;;0.00;;
74670;SDS011;63196;39.564;2.628;2023-07-24T06:42:38;0.00;;;0.00;;
74670;SDS011;63196;39.564;2.628;2023-07-24T06:45:04;0.00;;;0.00;;
74670;SDS011;63196;39.564;2.628;2023-07-24T06:47:30;0.00;;;0.00;;
74670;SDS011;63196;39.564;2.628;2023-07-24T06:52:22;0.10;;;0.00;;
74670;SDS011;63196;39.564;2.628;2023-07-24T06:54:48;0.00;;;0.00;;
74670;SDS011;63196;39.564;2.628;2023-07-24T06:57:13;0.00;;;0.00;;
74670;SDS011;63196;39.564;2.628;2023-07-24T06:59:39;0.10;;;0.10;;
74670;SDS011;63196;39.564;2.628;2023-07-24T07:02:05;0.10;;;0.10;;
74670;SDS011;63196;39.564;2.628;2023-07-24T07:04:30;0.20;;;0.00;;
74670;SDS011;63196;39.564;2.628;2023-07-24T07:06:56;0.00;;;0.00;;
74670;SDS011;63196;39.564;2.628;2023-07-24T07:09:21;0.00;;;0.00;;
74670;SDS011;63196;39.564;2.628;2023-07-24T07:11:48;0.00;;;0.00;;
74670;SDS011;63196;39.564;2.628;2023-07-24T07:14:13;0.20;;;0.20;;
74670;SDS011;63196;39.564;2.628;2023-07-24T07:16:39;0.00;;;0.00;;
74670;SDS011;63196;39.564;2.628;2023-07-24T07:19:06;0.00;;;0.00;;
74670;SDS011;63196;39.564;2.628;2023-07-24T07:21:31;0.00;;;0.00;;
74670;SDS011;63196;39.564;2.628;2023-07-24T07:23:56;0.00;;;0.00;;
74670;SDS011;63196;39.564;2.628;2023-07-24T07:26:22;0.00;;;0.00;;
74670;SDS011;63196;39.564;2.628;2023-07-24T07:28:47;0.00;;;0.00;;
74670;SDS011;63196;39.564;2.628;2023-07-24T07:31:12;0.00;;;0.00;;
74670;SDS011;63196;39.564;2.628;2023-07-24T07:33:38;0.10;;;0.00;;
74670;SDS011;63196;39.564;2.628;2023-07-24T07:36:03;0.10;;;0.00;;
74670;SDS011;63196;39.564;2.628;2023-07-24T07:38:29;0.00;;;0.00;;
74670;SDS011;63196;39.564;2.628;2023-07-24T07:40:55;0.00;;;0.00;;
74670;SDS011;63196;39.564;2.628;2023-07-24T07:43:20;0.00;;;0.00;;
74670;SDS011;63196;39.564;2.628;2023-07-24T07:45:46;0.00;;;0.00;;
74670;SDS011;63196;39.564;2.628;2023-07-24T07:48:11;0.00;;;0.00;;
74670;SDS011;63196;39.564;2.628;2023-07-24T07:50:37;0.00;;;0.00;;
74670;SDS011;63196;39.564;2.628;2023-07-24T07:53:02;0.00;;;0.00;;
74670;SDS011;63196;39.564;2.628;2023-07-24T07:55:28;0.00;;;0.00;;
74670;SDS011;63196;39.564;2.628;2023-07-24T07:57:53;0.00;;;0.00;;
74670;SDS011;63196;39.564;2.628;2023-07-24T08:00:18;0.10;;;0.00;;
74670;SDS011;63196;39.564;2.628;2023-07-24T08:02:44;0.10;;;0.00;;
74670;SDS011;63196;39.564;2.628;2023-07-24T08:05:10;0.00;;;0.00;;
74670;SDS011;63196;39.564;2.628;2023-07-24T08:07:35;0.20;;;0.10;;
74670;SDS011;63196;39.564;2.628;2023-07-24T08:10:01;0.00;;;0.00;;
74670;SDS011;63196;39.564;2.628;2023-07-24T08:12:27;0.20;;;0.00;;
74670;SDS011;63196;39.564;2.628;2023-07-24T08:14:52;0.00;;;0.00;;
74670;SDS011;63196;39.564;2.628;2023-07-24T08:17:18;0.00;;;0.00;;
74670;SDS011;63196;39.564;2.628;2023-07-24T08:19:43;0.00;;;0.00;;
74670;SDS011;63196;39.564;2.628;2023-07-24T08:22:10;0.10;;;0.00;;
74670;SDS011;63196;39.564;2.628;2023-07-24T08:24:35;0.00;;;0.00;;
74670;SDS011;63196;39.564;2.628;2023-07-24T08:27:01;0.10;;;0.10;;
74670;SDS011;63196;39.564;2.628;2023-07-24T08:29:26;0.00;;;0.00;;
74670;SDS011;63196;39.564;2.628;2023-07-24T08:31:52;0.00;;;0.00;;
74670;SDS011;63196;39.564;2.628;2023-07-24T08:34:17;0.00;;;0.00;;
74670;SDS011;63196;39.564;2.628;2023-07-24T08:36:42;0.00;;;0.00;;
74670;SDS011;63196;39.564;2.628;2023-07-24T08:39:08;0.00;;;0.00;;
74670;SDS011;63196;39.564;2.628;2023-07-24T08:41:33;0.00;;;0.00;;
74670;SDS011;63196;39.564;2.628;2023-07-24T08:44:00;0.00;;;0.00;;
74670;SDS011;63196;39.564;2.628;2023-07-24T08:46:30;0.00;;;0.00;;
74670;SDS011;63196;39.564;2.628;2023-07-24T08:48:55;0.10;;;0.10;;
74670;SDS011;63196;39.564;2.628;2023-07-24T08:51:21;0.00;;;0.00;;
74670;SDS011;63196;39.564;2.628;2023-07-24T08:53:47;0.00;;;0.00;;
74670;SDS011;63196;39.564;2.628;2023-07-24T08:56:13;0.00;;;0.00;;
74670;SDS011;63196;39.564;2.628;2023-07-24T08:58:39;0.00;;;0.00;;
74670;SDS011;63196;39.564;2.628;2023-07-24T09:01:08;0.10;;;0.00;;
74670;SDS011;63196;39.564;2.628;2023-07-24T09:03:34;0.00;;;0.00;;
74670;SDS011;63196;39.564;2.628;2023-07-24T09:06:00;0.00;;;0.00;;
74670;SDS011;63196;39.564;2.628;2023-07-24T09:08:35;0.10;;;0.10;;
74670;SDS011;63196;39.564;2.628;2023-07-24T09:11:02;0.00;;;0.00;;
74670;SDS011;63196;39.564;2.628;2023-07-24T09:13:28;0.00;;;0.00;;
74670;SDS011;63196;39.564;2.628;2023-07-24T09:15:54;0.10;;;0.10;;
74670;SDS011;63196;39.564;2.628;2023-07-24T09:18:20;0.10;;;0.10;;
74670;SDS011;63196;39.564;2.628;2023-07-24T09:20:46;0.00;;;0.00;;
74670;SDS011;63196;39.564;2.628;2023-07-24T09:23:13;0.10;;;0.10;;
74670;SDS011;63196;39.564;2.628;2023-07-24T09:25:39;0.10;;;0.10;;
74670;SDS011;63196;39.564;2.628;2023-07-24T09:28:12;0.00;;;0.00;;
74670;SDS011;63196;39.564;2.628;2023-07-24T09:30:38;0.10;;;0.00;;
74670;SDS011;63196;39.564;2.628;2023-07-24T09:33:03;0.20;;;0.10;;
74670;SDS011;63196;39.564;2.628;2023-07-24T09:35:29;0.10;;;0.10;;
74670;SDS011;63196;39.564;2.628;2023-07-24T09:40:40;0.00;;;0.00;;
74670;SDS011;63196;39.564;2.628;2023-07-24T09:43:15;0.20;;;0.20;;
74670;SDS011;63196;39.564;2.628;2023-07-24T09:45:41;0.10;;;0.00;;
74670;SDS011;63196;39.564;2.628;2023-07-24T09:48:07;0.00;;;0.00;;
74670;SDS011;63196;39.564;2.628;2023-07-24T09:50:36;0.00;;;0.00;;
74670;SDS011;63196;39.564;2.628;2023-07-24T09:53:02;0.00;;;0.00;;
74670;SDS011;63196;39.564;2.628;2023-07-24T09:55:37;0.10;;;0.10;;
74670;SDS011;63196;39.564;2.628;2023-07-24T09:58:06;0.00;;;0.00;;
74670;SDS011;63196;39.564;2.628;2023-07-24T10:00:32;0.10;;;0.10;;
74670;SDS011;63196;39.564;2.628;2023-07-24T10:02:57;0.10;;;0.10;;
74670;SDS011;63196;39.564;2.628;2023-07-24T10:05:23;0.10;;;0.10;;
74670;SDS011;63196;39.564;2.628;2023-07-24T10:07:48;0.30;;;0.20;;
74670;SDS011;63196;39.564;2.628;2023-07-24T10:10:15;0.20;;;0.20;;
74670;SDS011;63196;39.564;2.628;2023-07-24T10:12:41;0.30;;;0.30;;
74670;SDS011;63196;39.564;2.628;2023-07-24T10:15:07;0.10;;;0.10;;
74670;SDS011;63196;39.564;2.628;2023-07-24T10:17:40;0.10;;;0.10;;
74670;SDS011;63196;39.564;2.628;2023-07-24T10:20:06;0.20;;;0.20;;
74670;SDS011;63196;39.564;2.628;2023-07-24T10:24:58;0.20;;;0.20;;
74670;SDS011;63196;39.564;2.628;2023-07-24T10:27:23;0.90;;;0.50;;
74670;SDS011;63196;39.564;2.628;2023-07-24T10:30:02;0.30;;;0.30;;
74670;SDS011;63196;39.564;2.628;2023-07-24T10:34:57;0.30;;;0.30;;
74670;SDS011;63196;39.564;2.628;2023-07-24T10:37:33;0.30;;;0.30;;
74670;SDS011;63196;39.564;2.628;2023-07-24T10:39:59;0.30;;;0.30;;
74670;SDS011;63196;39.564;2.628;2023-07-24T10:42:24;1.20;;;0.60;;
74670;SDS011;63196;39.564;2.628;2023-07-24T10:44:50;0.40;;;0.40;;
74670;SDS011;63196;39.564;2.628;2023-07-24T10:47:15;0.50;;;0.50;;
74670;SDS011;63196;39.564;2.628;2023-07-24T10:49:59;0.60;;;0.50;;
74670;SDS011;63196;39.564;2.628;2023-07-24T10:52:28;0.60;;;0.50;;
74670;SDS011;63196;39.564;2.628;2023-07-24T10:54:54;0.30;;;0.30;;
74670;SDS011;63196;39.564;2.628;2023-07-24T10:57:24;0.30;;;0.30;;
74670;SDS011;63196;39.564;2.628;2023-07-24T10:59:50;0.40;;;0.40;;
74670;SDS011;63196;39.564;2.628;2023-07-24T11:02:16;0.30;;;0.30;;
74670;SDS011;63196;39.564;2.628;2023-07-24T11:04:42;0.20;;;0.20;;
74670;SDS011;63196;39.564;2.628;2023-07-24T11:07:07;0.30;;;0.30;;
74670;SDS011;63196;39.564;2.628;2023-07-24T11:09:36;0.30;;;0.30;;
74670;SDS011;63196;39.564;2.628;2023-07-24T11:12:09;0.20;;;0.20;;
74670;SDS011;63196;39.564;2.628;2023-07-24T11:14:34;0.20;;;0.20;;
74670;SDS011;63196;39.564;2.628;2023-07-24T11:16:59;0.40;;;0.40;;
74670;SDS011;63196;39.564;2.628;2023-07-24T11:19:25;0.10;;;0.10;;
74670;SDS011;63196;39.564;2.628;2023-07-24T11:21:50;0.10;;;0.10;;
74670;SDS011;63196;39.564;2.628;2023-07-24T11:24:17;0.30;;;0.30;;
74670;SDS011;63196;39.564;2.628;2023-07-24T11:26:42;0.10;;;0.10;;
74670;SDS011;63196;39.564;2.628;2023-07-24T11:29:11;0.10;;;0.00;;
74670;SDS011;63196;39.564;2.628;2023-07-24T11:31:37;0.00;;;0.00;;
74670;SDS011;63196;39.564;2.628;2023-07-24T11:34:04;0.10;;;0.00;;
74670;SDS011;63196;39.564;2.628;2023-07-24T11:36:30;0.10;;;0.10;;
74670;SDS011;63196;39.564;2.628;2023-07-24T11:38:56;0.00;;;0.00;;
74670;SDS011;63196;39.564;2.628;2023-07-24T11:41:21;0.00;;;0.00;;
74670;SDS011;63196;39.564;2.628;2023-07-24T11:43:47;0.00;;;0.00;;
74670;SDS011;63196;39.564;2.628;2023-07-24T11:46:21;0.00;;;0.00;;
74670;SDS011;63196;39.564;2.628;2023-07-24T11:48:47;0.00;;;0.00;;
74670;SDS011;63196;39.564;2.628;2023-07-24T11:51:13;0.10;;;0.00;;
74670;SDS011;63196;39.564;2.628;2023-07-24T11:53:39;0.00;;;0.00;;
74670;SDS011;63196;39.564;2.628;2023-07-24T11:56:12;0.00;;;0.00;;
74670;SDS011;63196;39.564;2.628;2023-07-24T11:58:38;0.00;;;0.00;;
74670;SDS011;63196;39.564;2.628;2023-07-24T12:01:03;0.00;;;0.00;;
74670;SDS011;63196;39.564;2.628;2023-07-24T12:03:29;0.10;;;0.00;;
74670;SDS011;63196;39.564;2.628;2023-07-24T12:05:54;0.00;;;0.00;;
74670;SDS011;63196;39.564;2.628;2023-07-24T12:08:21;0.10;;;0.10;;
74670;SDS011;63196;39.564;2.628;2023-07-24T12:10:48;0.10;;;0.10;;
74670;SDS011;63196;39.564;2.628;2023-07-24T12:13:14;0.20;;;0.20;;
74670;SDS011;63196;39.564;2.628;2023-07-24T12:15:40;0.20;;;0.20;;
74670;SDS011;63196;39.564;2.628;2023-07-24T12:18:06;0.60;;;0.50;;
74670;SDS011;63196;39.564;2.628;2023-07-24T12:20:31;0.70;;;0.60;;
74670;SDS011;63196;39.564;2.628;2023-07-24T12:22:57;1.70;;;0.90;;
74670;SDS011;63196;39.564;2.628;2023-07-24T12:25:22;0.90;;;0.70;;
74670;SDS011;63196;39.564;2.628;2023-07-24T12:27:48;0.50;;;0.50;;
74670;SDS011;63196;39.564;2.628;2023-07-24T12:30:14;0.30;;;0.30;;
74670;SDS011;63196;39.564;2.628;2023-07-24T12:32:39;0.20;;;0.20;;
74670;SDS011;63196;39.564;2.628;2023-07-24T12:35:05;0.20;;;0.20;;
74670;SDS011;63196;39.564;2.628;2023-07-24T12:37:31;0.50;;;0.40;;
74670;SDS011;63196;39.564;2.628;2023-07-24T12:39:59;0.10;;;0.10;;
74670;SDS011;63196;39.564;2.628;2023-07-24T12:42:24;0.30;;;0.30;;
74670;SDS011;63196;39.564;2.628;2023-07-24T12:44:51;0.30;;;0.30;;
74670;SDS011;63196;39.564;2.628;2023-07-24T12:47:16;1.50;;;0.70;;
74670;SDS011;63196;39.564;2.628;2023-07-24T12:49:42;0.90;;;0.60;;
74670;SDS011;63196;39.564;2.628;2023-07-24T12:52:07;1.10;;;0.60;;
74670;SDS011;63196;39.564;2.628;2023-07-24T12:54:33;1.40;;;0.80;;
74670;SDS011;63196;39.564;2.628;2023-07-24T12:59:24;1.50;;;0.80;;
74670;SDS011;63196;39.564;2.628;2023-07-24T13:01:49;1.50;;;0.70;;
74670;SDS011;63196;39.564;2.628;2023-07-24T13:04:15;1.30;;;0.70;;
74670;SDS011;63196;39.564;2.628;2023-07-24T13:06:40;0.60;;;0.60;;
74670;SDS011;63196;39.564;2.628;2023-07-24T13:09:07;0.50;;;0.50;;
74670;SDS011;63196;39.564;2.628;2023-07-24T13:11:33;0.30;;;0.30;;
74670;SDS011;63196;39.564;2.628;2023-07-24T13:13:58;0.20;;;0.20;;
74670;SDS011;63196;39.564;2.628;2023-07-24T13:16:23;0.20;;;0.20;;
74670;SDS011;63196;39.564;2.628;2023-07-24T13:18:49;0.20;;;0.20;;
74670;SDS011;63196;39.564;2.628;2023-07-24T13:21:14;0.10;;;0.10;;
74670;SDS011;63196;39.564;2.628;2023-07-24T13:23:40;0.00;;;0.00;;
74670;SDS011;63196;39.564;2.628;2023-07-24T13:26:05;0.10;;;0.10;;
74670;SDS011;63196;39.564;2.628;2023-07-24T13:28:33;0.10;;;0.10;;
74670;SDS011;63196;39.564;2.628;2023-07-24T13:30:58;0.00;;;0.00;;
74670;SDS011;63196;39.564;2.628;2023-07-24T13:33:23;0.00;;;0.00;;
74670;SDS011;63196;39.564;2.628;2023-07-24T13:35:49;0.00;;;0.00;;
74670;SDS011;63196;39.564;2.628;2023-07-24T13:38:15;0.00;;;0.00;;
74670;SDS011;63196;39.564;2.628;2023-07-24T13:40:41;0.00;;;0.00;;
74670;SDS011;63196;39.564;2.628;2023-07-24T13:43:06;0.00;;;0.00;;
74670;SDS011;63196;39.564;2.628;2023-07-24T13:45:32;0.00;;;0.00;;
74670;SDS011;63196;39.564;2.628;2023-07-24T13:47:57;0.10;;;0.00;;
74670;SDS011;63196;39.564;2.628;2023-07-24T13:50:23;0.00;;;0.00;;
74670;SDS011;63196;39.564;2.628;2023-07-24T13:52:49;0.00;;;0.00;;
74670;SDS011;63196;39.564;2.628;2023-07-24T13:55:14;0.00;;;0.00;;
74670;SDS011;63196;39.564;2.628;2023-07-24T13:57:40;0.00;;;0.00;;
74670;SDS011;63196;39.564;2.628;2023-07-24T14:00:06;0.10;;;0.00;;
74670;SDS011;63196;39.564;2.628;2023-07-24T14:02:31;0.10;;;0.10;;
74670;SDS011;63196;39.564;2.628;2023-07-24T14:04:57;0.00;;;0.00;;
74670;SDS011;63196;39.564;2.628;2023-07-24T14:07:22;0.10;;;0.10;;
74670;SDS011;63196;39.564;2.628;2023-07-24T14:09:48;0.20;;;0.20;;
74670;SDS011;63196;39.564;2.628;2023-07-24T14:12:13;0.10;;;0.10;;
74670;SDS011;63196;39.564;2.628;2023-07-24T14:14:38;0.20;;;0.20;;
74670;SDS011;63196;39.564;2.628;2023-07-24T14:17:04;0.10;;;0.10;;
74670;SDS011;63196;39.564;2.628;2023-07-24T14:19:29;0.10;;;0.10;;
74670;SDS011;63196;39.564;2.628;2023-07-24T14:21:55;0.00;;;0.00;;
74670;SDS011;63196;39.564;2.628;2023-07-24T14:24:20;0.30;;;0.30;;
74670;SDS011;63196;39.564;2.628;2023-07-24T14:26:45;0.00;;;0.00;;
74670;SDS011;63196;39.564;2.628;2023-07-24T14:29:11;0.20;;;0.20;;
74670;SDS011;63196;39.564;2.628;2023-07-24T14:31:37;0.00;;;0.00;;
74670;SDS011;63196;39.564;2.628;2023-07-24T14:34:03;0.10;;;0.10;;
74670;SDS011;63196;39.564;2.628;2023-07-24T14:36:28;0.10;;;0.10;;
74670;SDS011;63196;39.564;2.628;2023-07-24T14:39:01;0.10;;;0.10;;
74670;SDS011;63196;39.564;2.628;2023-07-24T14:41:27;0.10;;;0.00;;
74670;SDS011;63196;39.564;2.628;2023-07-24T14:43:52;0.00;;;0.00;;
74670;SDS011;63196;39.564;2.628;2023-07-24T14:46:18;0.10;;;0.10;;
74670;SDS011;63196;39.564;2.628;2023-07-24T14:48:43;0.00;;;0.00;;
74670;SDS011;63196;39.564;2.628;2023-07-24T14:51:09;0.10;;;0.10;;
74670;SDS011;63196;39.564;2.628;2023-07-24T14:53:34;0.00;;;0.00;;
74670;SDS011;63196;39.564;2.628;2023-07-24T14:56:01;0.10;;;0.10;;
74670;SDS011;63196;39.564;2.628;2023-07-24T14:58:26;0.00;;;0.00;;
74670;SDS011;63196;39.564;2.628;2023-07-24T15:00:52;0.00;;;0.00;;